createdAt,value
2023-02-21T00:02:06.844Z,10.46
2023-02-21T00:04:53.214Z,10.13
2023-02-21T00:07:39.915Z,10.18
2023-02-21T00:10:27.971Z,9.97
2023-02-21T00:13:15.129Z,9.28
2023-02-21T00:16:01.036Z,9.39
2023-02-21T00:18:46.972Z,10.52
2023-02-21T00:21:32.734Z,11.28
2023-02-21T00:24:18.742Z,10.56
2023-02-21T00:27:04.648Z,11.78
2023-02-21T00:29:51.846Z,11.19
2023-02-21T00:32:37.942Z,10.64
2023-02-21T00:35:24.307Z,11.07
2023-02-21T00:38:10.955Z,10.48
2023-02-21T00:40:57.135Z,11.18
2023-02-21T00:43:47.836Z,11.94
2023-02-21T00:46:35.111Z,12.20
2023-02-21T00:49:21.476Z,10.93
2023-02-21T00:52:08.427Z,10.39
2023-02-21T00:54:54.803Z,11.29
2023-02-21T00:57:41.696Z,10.89
2023-02-21T01:00:33.308Z,10.94
2023-02-21T01:03:20.705Z,10.86
2023-02-21T01:06:06.607Z,11.04
2023-02-21T01:08:52.772Z,11.62
2023-02-21T01:11:40.933Z,11.44
2023-02-21T01:14:28.398Z,11.04
2023-02-21T01:17:14.657Z,11.70
2023-02-21T01:20:02.586Z,10.71
2023-02-21T01:22:49.341Z,11.29
2023-02-21T01:25:35.291Z,11.64
2023-02-21T01:28:21.642Z,12.24
2023-02-21T01:31:07.507Z,11.73
2023-02-21T01:33:58.857Z,11.67
2023-02-21T01:36:46.383Z,11.33
2023-02-21T01:39:32.796Z,11.99
2023-02-21T01:42:19.512Z,12.06
2023-02-21T01:45:07.185Z,12.28
2023-02-21T01:47:53.261Z,10.70
2023-02-21T01:50:41.556Z,11.46
2023-02-21T01:53:32.838Z,11.15
2023-02-21T01:56:20.094Z,11.89
2023-02-21T01:59:08.002Z,10.95
2023-02-21T02:01:59.229Z,11.33
2023-02-21T02:04:45.352Z,11.82
2023-02-21T02:07:32.481Z,12.15
2023-02-21T02:10:19.964Z,11.02
2023-02-21T02:13:16.255Z,11.45
2023-02-21T02:15:56.935Z,12.27
2023-02-21T02:18:56.375Z,12.02
2023-02-21T02:22:20.199Z,11.45
2023-02-21T02:24:58.069Z,10.70
2023-02-21T02:27:54.891Z,10.77
2023-02-21T02:30:57.832Z,10.00
2023-02-21T02:33:56.782Z,11.07
2023-02-21T02:36:31.090Z,11.24
2023-02-21T02:39:06.650Z,10.68
2023-02-21T02:41:47.569Z,11.13
2023-02-21T02:44:20.950Z,10.33
2023-02-21T02:46:51.983Z,10.92
2023-02-21T02:49:23.005Z,9.81
2023-02-21T02:51:54.626Z,9.78
2023-02-21T02:54:23.265Z,10.37
2023-02-21T02:56:52.419Z,11.12
2023-02-21T02:59:26.010Z,11.67
2023-02-21T03:02:10.285Z,11.82
2023-02-21T03:05:17.643Z,11.75
2023-02-21T03:07:59.428Z,11.41
2023-02-21T03:10:39.577Z,10.89
2023-02-21T03:13:14.010Z,11.70
2023-02-21T03:15:50.257Z,12.12
2023-02-21T03:18:26.340Z,11.28
2023-02-21T03:20:58.474Z,11.44
2023-02-21T03:23:31.246Z,12.18
2023-02-21T03:26:04.015Z,10.53
2023-02-21T03:28:34.060Z,11.19
2023-02-21T03:31:05.210Z,11.48
2023-02-21T03:33:34.486Z,11.28
2023-02-21T03:36:05.940Z,11.20
2023-02-21T03:38:36.546Z,11.20
2023-02-21T03:41:05.339Z,11.74
2023-02-21T03:43:33.917Z,11.01
2023-02-21T03:46:02.520Z,10.13
2023-02-21T03:48:32.625Z,10.61
2023-02-21T03:51:02.008Z,11.55
2023-02-21T03:53:30.610Z,10.64
2023-02-21T03:56:00.538Z,11.70
2023-02-21T03:58:29.119Z,11.65
2023-02-21T04:00:57.766Z,11.55
2023-02-21T04:03:26.468Z,10.96
2023-02-21T04:05:55.118Z,11.76
2023-02-21T04:08:23.752Z,11.34
2023-02-21T04:10:52.932Z,11.62
2023-02-21T04:13:24.581Z,11.49
2023-02-21T04:15:53.272Z,11.73
2023-02-21T04:18:21.851Z,11.78
2023-02-21T04:20:50.909Z,11.82
2023-02-21T04:23:20.674Z,12.00
2023-02-21T04:25:49.683Z,12.39
2023-02-21T04:28:18.267Z,12.31
2023-02-21T04:30:48.308Z,12.30
2023-02-21T04:33:16.992Z,12.12
2023-02-21T04:35:45.540Z,12.28
2023-02-21T04:38:14.123Z,12.28
2023-02-21T04:40:42.689Z,12.48
2023-02-21T04:43:11.273Z,10.88
2023-02-21T04:45:39.906Z,11.61
2023-02-21T04:48:09.968Z,12.13
2023-02-21T04:50:38.541Z,11.83
2023-02-21T04:53:07.131Z,12.44
2023-02-21T04:55:35.680Z,12.43
2023-02-21T04:58:04.536Z,12.52
2023-02-21T05:00:33.199Z,12.60
2023-02-21T05:03:02.198Z,11.63
2023-02-21T05:05:32.149Z,11.16
2023-02-21T05:08:00.767Z,12.12
2023-02-21T05:10:44.635Z,11.64
2023-02-21T05:13:14.391Z,11.84
2023-02-21T05:15:43.345Z,12.36
2023-02-21T05:18:11.905Z,12.33
2023-02-21T05:20:41.859Z,11.71
2023-02-21T05:23:13.777Z,12.18
2023-02-21T05:25:42.733Z,12.15
2023-02-21T05:28:11.379Z,11.64
2023-02-21T05:30:40.065Z,11.43
2023-02-21T05:33:08.684Z,11.52
2023-02-21T05:35:37.252Z,11.72
2023-02-21T05:38:07.188Z,11.03
2023-02-21T05:40:35.771Z,10.94
2023-02-21T05:43:04.352Z,11.87
2023-02-21T05:45:32.929Z,11.63
2023-02-21T05:48:02.574Z,12.20
2023-02-21T05:50:31.674Z,12.02
2023-02-21T05:53:01.387Z,11.23
2023-02-21T05:55:31.339Z,10.86
2023-02-21T05:57:59.926Z,11.62
2023-02-21T06:00:31.153Z,11.91
2023-02-21T06:02:59.862Z,10.84
2023-02-21T06:05:28.497Z,12.13
2023-02-21T06:07:57.044Z,11.34
2023-02-21T06:10:25.631Z,11.17
2023-02-21T06:12:55.555Z,12.18
2023-02-21T06:15:24.147Z,12.03
2023-02-21T06:17:52.720Z,11.59
2023-02-21T06:20:21.326Z,11.89
2023-02-21T06:22:50.081Z,12.10
2023-02-21T06:25:19.049Z,11.90
2023-02-21T06:27:47.617Z,11.11
2023-02-21T06:30:17.942Z,11.82
2023-02-21T06:32:46.587Z,11.98
2023-02-21T06:35:15.409Z,11.31
2023-02-21T06:37:43.983Z,11.50
2023-02-21T06:40:13.199Z,12.14
2023-02-21T06:42:41.748Z,11.43
2023-02-21T06:45:10.621Z,11.13
2023-02-21T06:47:40.568Z,11.43
2023-02-21T06:50:10.429Z,11.47
2023-02-21T06:52:39.109Z,11.30
2023-02-21T06:55:08.853Z,11.59
2023-02-21T06:57:37.455Z,12.24
2023-02-21T07:00:07.059Z,12.25
2023-02-21T07:02:35.856Z,10.85
2023-02-21T07:05:06.226Z,10.90
2023-02-21T07:07:34.803Z,11.84
2023-02-21T07:10:03.600Z,12.19
2023-02-21T07:12:32.156Z,11.46
2023-02-21T07:15:00.830Z,11.08
2023-02-21T07:17:29.873Z,11.27
2023-02-21T07:19:58.451Z,11.74
2023-02-21T07:22:28.485Z,10.82
2023-02-21T07:24:57.479Z,11.12
2023-02-21T07:27:26.088Z,11.95
2023-02-21T07:29:54.665Z,11.51
2023-02-21T07:34:51.834Z,11.52
2023-02-21T07:37:20.467Z,11.60
2023-02-21T07:39:50.420Z,12.16
2023-02-21T07:42:19.005Z,12.37
2023-02-21T07:44:47.983Z,11.07
2023-02-21T07:47:16.925Z,10.85
2023-02-21T07:49:45.478Z,10.38
2023-02-21T07:52:14.117Z,10.22
2023-02-21T07:54:42.739Z,10.95
2023-02-21T07:57:13.385Z,11.56
2023-02-21T07:59:41.967Z,11.71
2023-02-21T08:02:12.460Z,11.35
2023-02-21T08:04:41.613Z,10.94
2023-02-21T08:07:10.693Z,10.81
2023-02-21T08:09:39.926Z,10.57
2023-02-21T08:12:08.688Z,10.03
2023-02-21T08:14:38.642Z,11.20
2023-02-21T08:17:07.226Z,10.71
2023-02-21T08:19:35.788Z,11.85
2023-02-21T08:22:04.382Z,11.82
2023-02-21T08:24:32.951Z,11.24
2023-02-21T08:27:01.535Z,10.73
2023-02-21T08:29:30.119Z,11.44
2023-02-21T08:32:00.240Z,11.44
2023-02-21T08:34:30.276Z,11.47
2023-02-21T08:36:58.911Z,10.33
2023-02-21T08:39:30.112Z,11.24
2023-02-21T08:41:58.743Z,11.95
2023-02-21T08:44:27.335Z,12.16
2023-02-21T08:46:55.979Z,10.67
2023-02-21T08:49:26.088Z,11.49
2023-02-21T08:51:55.160Z,10.99
2023-02-21T08:54:23.754Z,10.30
2023-02-21T08:56:54.595Z,11.39
2023-02-21T08:59:23.235Z,11.52
2023-02-21T09:01:51.935Z,12.03
2023-02-21T09:04:20.475Z,12.23
2023-02-21T09:06:52.769Z,12.18
2023-02-21T09:09:22.199Z,12.02
2023-02-21T09:11:50.822Z,11.45
2023-02-21T09:14:19.434Z,10.85
2023-02-21T09:16:48.185Z,10.64
2023-02-21T09:19:17.019Z,10.63
2023-02-21T09:21:55.382Z,9.39
2023-02-21T09:24:25.369Z,10.77
2023-02-21T09:26:55.281Z,11.02
2023-02-21T09:29:26.547Z,9.73
2023-02-21T09:31:56.738Z,10.71
2023-02-21T09:34:25.628Z,11.17
2023-02-21T09:36:56.081Z,10.38
2023-02-21T09:39:25.334Z,11.56
2023-02-21T09:41:57.452Z,12.02
2023-02-21T09:44:30.455Z,11.76
2023-02-21T09:47:03.790Z,12.09
2023-02-21T09:49:34.795Z,11.13
2023-02-21T09:52:05.378Z,10.77
2023-02-21T09:54:36.823Z,11.74
2023-02-21T09:57:07.496Z,12.14
2023-02-21T09:59:36.072Z,12.06
2023-02-21T10:02:23.610Z,11.04
2023-02-21T10:05:04.717Z,11.57
2023-02-21T10:07:44.950Z,11.49
2023-02-21T10:10:18.698Z,10.62
2023-02-21T10:12:55.104Z,9.94
2023-02-21T10:15:41.720Z,10.29
2023-02-21T10:18:21.024Z,11.63
2023-02-21T10:20:53.042Z,10.11
2023-02-21T10:23:28.544Z,10.59
2023-02-21T10:26:03.495Z,11.08
2023-02-21T10:28:32.084Z,11.84
2023-02-21T10:31:04.165Z,11.07
2023-02-21T10:33:36.978Z,10.69
2023-02-21T10:36:13.055Z,10.85
2023-02-21T10:38:48.222Z,10.62
2023-02-21T10:41:17.868Z,9.64
2023-02-21T10:43:50.694Z,9.78
2023-02-21T10:46:24.378Z,11.11
2023-02-21T10:48:56.632Z,10.89
2023-02-21T10:51:33.006Z,10.50
2023-02-21T10:54:21.915Z,10.01
2023-02-21T10:56:52.678Z,10.03
2023-02-21T10:59:24.437Z,10.36
2023-02-21T11:01:54.646Z,11.13
2023-02-21T11:04:29.973Z,11.61
2023-02-21T11:07:05.214Z,10.65
2023-02-21T11:09:38.651Z,10.74
2023-02-21T11:12:19.070Z,11.79
2023-02-21T11:15:07.419Z,11.19
2023-02-21T11:17:36.114Z,11.22
2023-02-21T11:20:17.641Z,10.87
2023-02-21T11:22:49.262Z,11.84
2023-02-21T11:25:25.215Z,12.46
2023-02-21T11:28:08.120Z,11.99
2023-02-21T11:30:38.829Z,11.84
2023-02-21T11:33:09.332Z,11.93
2023-02-21T11:35:44.210Z,12.48
2023-02-21T11:38:35.871Z,11.16
2023-02-21T11:41:17.102Z,11.61
2023-02-21T11:43:48.451Z,10.35
2023-02-21T11:46:22.504Z,11.97
2023-02-21T11:49:02.125Z,10.91
2023-02-21T11:51:37.822Z,10.72
2023-02-21T11:54:07.731Z,10.84
2023-02-21T11:56:53.451Z,12.00
2023-02-21T11:59:41.458Z,12.20
2023-02-21T12:02:48.962Z,11.62
2023-02-21T12:05:39.238Z,11.98
2023-02-21T12:08:26.696Z,11.93
2023-02-21T12:11:05.199Z,11.93
2023-02-21T12:13:45.463Z,11.99
2023-02-21T12:16:25.817Z,12.41
2023-02-21T12:19:11.801Z,12.45
2023-02-21T12:22:12.737Z,11.67
2023-02-21T12:24:56.641Z,12.06
2023-02-21T12:27:35.261Z,12.54
2023-02-21T12:30:21.703Z,12.37
2023-02-21T12:33:04.691Z,12.58
2023-02-21T12:36:15.826Z,12.21
2023-02-21T12:39:00.764Z,12.47
2023-02-21T12:41:45.812Z,12.24
2023-02-21T12:44:18.322Z,11.92
2023-02-21T12:46:56.877Z,12.55
2023-02-21T12:49:30.649Z,12.60
2023-02-21T12:52:06.406Z,12.64
2023-02-21T12:54:43.609Z,12.55
2023-02-21T12:57:15.091Z,12.40
2023-02-21T13:00:02.558Z,12.41
2023-02-21T13:02:41.843Z,12.66
2023-02-21T13:05:16.161Z,12.82
2023-02-21T13:07:52.752Z,12.49
2023-02-21T13:10:25.857Z,12.72
2023-02-21T13:12:59.167Z,12.79
2023-02-21T13:15:29.589Z,12.85
2023-02-21T13:18:07.230Z,12.89
2023-02-21T13:20:40.150Z,12.53
2023-02-21T13:23:27.121Z,12.63
2023-02-21T13:26:12.987Z,12.66
2023-02-21T13:28:44.488Z,12.80
2023-02-21T13:31:21.949Z,12.77
2023-02-21T13:33:55.789Z,11.98
2023-02-21T13:36:28.063Z,11.92
2023-02-21T13:39:05.836Z,12.05
2023-02-21T13:41:38.003Z,12.27
2023-02-21T13:44:10.771Z,12.57
2023-02-21T13:47:02.002Z,12.41
2023-02-21T13:49:48.332Z,11.76
2023-02-21T13:52:49.348Z,12.49
2023-02-21T13:55:33.036Z,12.75
2023-02-21T13:58:34.081Z,12.03
2023-02-21T14:01:44.291Z,11.94
2023-02-21T14:05:02.017Z,12.45
2023-02-21T14:08:03.407Z,12.35
2023-02-21T14:10:40.508Z,12.72
2023-02-21T14:13:26.037Z,12.85
2023-02-21T14:16:00.790Z,12.72
2023-02-21T14:18:32.114Z,12.86
2023-02-21T14:21:02.875Z,12.77
2023-02-21T14:23:42.746Z,12.79
2023-02-21T14:26:36.295Z,12.63
2023-02-21T14:29:31.183Z,12.67
2023-02-21T14:32:29.272Z,12.64
2023-02-21T14:35:00.137Z,12.70
2023-02-21T14:37:37.348Z,12.53
2023-02-21T14:40:26.008Z,12.62
2023-02-21T14:43:10.881Z,12.31
2023-02-21T14:45:56.463Z,12.64
2023-02-21T14:48:44.119Z,12.63
2023-02-21T14:51:50.999Z,12.71
2023-02-21T14:54:37.337Z,12.36
2023-02-21T14:57:43.820Z,12.60
2023-02-21T15:00:32.034Z,12.72
2023-02-21T15:03:10.971Z,12.86
2023-02-21T15:05:46.170Z,12.85
2023-02-21T15:08:18.305Z,12.84
2023-02-21T15:10:48.461Z,12.74
2023-02-21T15:13:26.929Z,12.76
2023-02-21T15:16:01.180Z,12.25
2023-02-21T15:18:32.620Z,12.46
2023-02-21T15:21:07.298Z,12.21
2023-02-21T15:23:36.103Z,12.32
2023-02-21T15:26:19.905Z,12.53
2023-02-21T15:29:06.704Z,12.37
2023-02-21T15:31:37.893Z,12.54
2023-02-21T15:34:07.015Z,12.27
2023-02-21T15:36:35.822Z,12.50
2023-02-21T15:39:08.255Z,12.69
2023-02-21T15:41:41.928Z,12.54
2023-02-21T15:44:16.553Z,12.44
2023-02-21T15:46:49.480Z,12.18
2023-02-21T15:49:24.422Z,12.42
2023-02-21T15:51:53.358Z,12.49
2023-02-21T15:54:30.108Z,12.60
2023-02-21T15:57:24.618Z,12.72
2023-02-21T16:00:20.838Z,12.74
2023-02-21T16:02:49.531Z,12.84
2023-02-21T16:05:26.945Z,12.77
2023-02-21T16:08:01.144Z,12.76
2023-02-21T16:10:29.822Z,12.80
2023-02-21T16:13:01.719Z,12.73
2023-02-21T16:15:35.254Z,12.74
2023-02-21T16:18:07.991Z,12.68
2023-02-21T16:20:38.344Z,12.76
2023-02-21T16:23:22.566Z,12.77
2023-02-21T16:26:03.180Z,12.69
2023-02-21T16:28:32.530Z,12.74
2023-02-21T16:31:04.685Z,12.70
2023-02-21T16:33:33.985Z,12.69
2023-02-21T16:36:07.156Z,12.69
2023-02-21T16:38:35.724Z,12.69
2023-02-21T16:41:04.392Z,12.63
2023-02-21T16:43:32.962Z,12.72
2023-02-21T16:46:03.013Z,12.77
2023-02-21T16:48:33.897Z,12.79
2023-02-21T16:51:05.488Z,12.74
2023-02-21T16:53:34.321Z,12.87
2023-02-21T16:56:03.922Z,12.83
2023-02-21T16:58:36.181Z,12.87
2023-02-21T17:01:09.390Z,12.80
2023-02-21T17:03:38.021Z,12.81
2023-02-21T17:06:07.963Z,12.78
2023-02-21T17:08:36.642Z,12.73
2023-02-21T17:11:05.514Z,12.77
2023-02-21T17:13:34.109Z,12.74
2023-02-21T17:16:02.844Z,12.64
2023-02-21T17:18:32.801Z,12.64
2023-02-21T17:21:01.913Z,12.55
2023-02-21T17:23:30.563Z,12.51
2023-02-21T17:25:59.168Z,12.63
2023-02-21T17:28:27.789Z,12.76
2023-02-21T17:30:56.509Z,12.76
2023-02-21T17:33:25.166Z,12.80
2023-02-21T17:35:55.867Z,12.79
2023-02-21T17:38:24.424Z,12.81
2023-02-21T17:40:53.606Z,12.83
2023-02-21T17:43:22.274Z,12.79
2023-02-21T17:45:50.896Z,12.82
2023-02-21T17:48:19.488Z,12.82
2023-02-21T17:50:48.084Z,12.86
2023-02-21T17:53:18.043Z,12.83
2023-02-21T17:55:46.692Z,12.85
2023-02-21T17:58:15.288Z,12.86
2023-02-21T18:00:45.398Z,12.81
2023-02-21T18:03:14.411Z,12.83
2023-02-21T18:05:43.248Z,12.82
2023-02-21T18:08:11.888Z,12.84
2023-02-21T18:10:46.426Z,12.81
2023-02-21T18:13:15.548Z,12.77
2023-02-21T18:15:44.134Z,12.74
2023-02-21T18:18:12.724Z,12.81
2023-02-21T18:20:41.333Z,12.80
2023-02-21T18:23:09.883Z,12.83
2023-02-21T18:25:38.501Z,12.85
2023-02-21T18:28:08.463Z,12.74
2023-02-21T18:30:37.165Z,12.64
2023-02-21T18:33:06.738Z,12.70
2023-02-21T18:35:35.331Z,12.76
2023-02-21T18:38:03.898Z,12.81
2023-02-21T18:40:37.692Z,12.77
2023-02-21T18:43:08.340Z,12.72
2023-02-21T18:45:38.356Z,12.70
2023-02-21T18:48:07.158Z,12.65
2023-02-21T18:50:36.749Z,12.71
2023-02-21T18:53:05.832Z,12.63
2023-02-21T18:55:34.706Z,12.70
2023-02-21T18:58:03.344Z,12.66
2023-02-21T19:00:36.328Z,12.53
2023-02-21T19:03:06.227Z,12.55
2023-02-21T19:05:35.606Z,12.69
2023-02-21T19:08:04.502Z,12.74
2023-02-21T19:10:33.450Z,12.68
2023-02-21T19:13:02.422Z,12.68
2023-02-21T19:15:32.646Z,12.63
2023-02-21T19:18:01.503Z,12.64
2023-02-21T19:20:30.128Z,12.61
2023-02-21T19:22:58.716Z,12.71
2023-02-21T19:25:28.270Z,12.76
2023-02-21T19:28:00.549Z,12.74
2023-02-21T19:30:32.954Z,12.61
2023-02-21T19:33:04.021Z,12.69
2023-02-21T19:35:34.373Z,12.69
2023-02-21T19:38:05.825Z,12.79
2023-02-21T19:40:35.882Z,12.81
2023-02-21T19:43:06.426Z,12.83
2023-02-21T19:45:35.080Z,12.78
2023-02-21T19:48:05.283Z,12.76
2023-02-21T19:50:35.192Z,12.76
2023-02-21T19:53:04.163Z,12.74
2023-02-21T19:55:32.834Z,12.75
2023-02-21T19:58:06.669Z,12.81
2023-02-21T20:00:35.481Z,12.81
2023-02-21T20:03:05.653Z,12.78
2023-02-21T20:05:34.291Z,12.73
2023-02-21T20:08:02.903Z,12.72
2023-02-21T20:10:31.506Z,12.72
2023-02-21T20:13:02.329Z,12.66
2023-02-21T20:15:30.933Z,12.79
2023-02-21T20:17:59.521Z,12.73
2023-02-21T20:20:30.049Z,12.73
2023-02-21T20:22:58.781Z,12.74
2023-02-21T20:25:27.360Z,12.70
2023-02-21T20:27:56.116Z,12.73
2023-02-21T20:30:25.193Z,12.64
2023-02-21T20:32:54.203Z,12.70
2023-02-21T20:35:24.682Z,12.67
2023-02-21T20:37:55.086Z,12.67
2023-02-21T20:40:24.168Z,12.68
2023-02-21T20:42:52.724Z,12.66
2023-02-21T20:45:23.705Z,12.61
2023-02-21T20:47:52.342Z,12.58
2023-02-21T20:50:22.119Z,12.62
2023-02-21T20:52:51.096Z,12.71
2023-02-21T20:55:22.437Z,12.58
2023-02-21T20:57:51.282Z,12.39
2023-02-21T21:00:23.595Z,12.46
2023-02-21T21:02:52.946Z,12.57
2023-02-21T21:05:21.643Z,12.61
2023-02-21T21:07:50.247Z,12.45
2023-02-21T21:10:20.351Z,12.49
2023-02-21T21:12:49.709Z,12.55
2023-02-21T21:15:19.317Z,12.48
2023-02-21T21:17:48.393Z,12.49
2023-02-21T21:20:19.588Z,12.49
2023-02-21T21:22:49.051Z,12.48
2023-02-21T21:25:18.487Z,12.45
2023-02-21T21:27:48.942Z,12.43
2023-02-21T21:30:22.956Z,12.48
2023-02-21T21:32:51.732Z,12.49
2023-02-21T21:35:20.904Z,12.44
2023-02-21T21:37:50.189Z,12.46
2023-02-21T21:40:19.078Z,12.43
2023-02-21T21:42:52.142Z,12.44
2023-02-21T21:45:24.927Z,12.53
2023-02-21T21:47:57.562Z,12.44
2023-02-21T21:50:26.383Z,12.47
2023-02-21T21:52:58.196Z,12.43
2023-02-21T21:55:29.219Z,12.40
2023-02-21T21:57:59.404Z,12.48
2023-02-21T22:00:30.606Z,12.48
2023-02-21T22:03:02.032Z,12.48
2023-02-21T22:05:32.635Z,12.65
2023-02-21T22:08:02.109Z,12.56
2023-02-21T22:10:31.168Z,12.47
2023-02-21T22:13:02.468Z,12.42
2023-02-21T22:15:31.583Z,12.34
2023-02-21T22:18:04.023Z,12.27
2023-02-21T22:20:32.744Z,12.30
2023-02-21T22:23:01.469Z,12.12
2023-02-21T22:25:32.107Z,12.01
2023-02-21T22:28:05.985Z,12.00
2023-02-21T22:30:34.592Z,11.92
2023-02-21T22:33:03.717Z,11.98
2023-02-21T22:35:32.384Z,12.12
2023-02-21T22:38:03.068Z,12.18
2023-02-21T22:40:35.674Z,12.24
2023-02-21T22:43:09.031Z,12.28
2023-02-21T22:45:38.823Z,12.30
2023-02-21T22:48:10.131Z,12.25
2023-02-21T22:50:39.592Z,12.24
2023-02-21T22:53:13.107Z,12.26
2023-02-21T22:55:41.727Z,12.25
2023-02-21T22:58:12.055Z,12.25
2023-02-21T23:00:40.619Z,12.32
2023-02-21T23:03:13.806Z,12.26
2023-02-21T23:05:44.751Z,12.06
2023-02-21T23:08:15.668Z,11.93
2023-02-21T23:10:44.415Z,12.01
2023-02-21T23:13:16.986Z,12.10
2023-02-21T23:15:46.666Z,12.19
2023-02-21T23:18:20.575Z,12.28
2023-02-21T23:20:52.725Z,12.29
2023-02-21T23:23:22.018Z,12.27
2023-02-21T23:25:50.600Z,12.27
2023-02-21T23:28:20.609Z,12.22
2023-02-21T23:30:50.287Z,12.20
2023-02-21T23:33:22.984Z,12.10
2023-02-21T23:35:53.451Z,12.27
2023-02-21T23:38:24.117Z,11.95
2023-02-21T23:40:56.169Z,11.81
2023-02-21T23:43:29.578Z,11.79
2023-02-21T23:46:00.260Z,11.72
2023-02-21T23:48:29.783Z,11.80
2023-02-21T23:50:58.770Z,11.87
2023-02-21T23:53:29.363Z,11.82
2023-02-21T23:56:00.704Z,11.79
2023-02-21T23:58:33.161Z,11.77
